createdAt,value
2022-09-14T00:00:12.991Z,65556.66
2022-09-14T00:02:41.802Z,65556.66
2022-09-14T00:05:10.862Z,65556.66
2022-09-14T00:07:39.299Z,65556.66
2022-09-14T00:10:09.050Z,65556.66
2022-09-14T00:12:37.551Z,65556.66
2022-09-14T00:15:07.518Z,65556.66
2022-09-14T00:17:37.425Z,65556.66
2022-09-14T00:20:18.096Z,65556.66
2022-09-14T00:22:46.573Z,65556.66
2022-09-14T00:25:15.195Z,65556.66
2022-09-14T00:27:43.669Z,65556.66
2022-09-14T00:30:21.315Z,65556.66
2022-09-14T00:32:51.875Z,65556.66
2022-09-14T00:35:20.661Z,65556.66
2022-09-14T00:37:52.552Z,65556.66
2022-09-14T00:40:21.333Z,65556.66
2022-09-14T00:42:49.884Z,65556.66
2022-09-14T00:45:22.258Z,65556.66
2022-09-14T00:47:56.798Z,65556.66
2022-09-14T00:50:26.015Z,65556.66
2022-09-14T00:52:55.517Z,65556.66
2022-09-14T00:55:25.228Z,65556.66
2022-09-14T00:57:55.511Z,65556.66
2022-09-14T01:00:27.038Z,65556.66
2022-09-14T01:02:57.667Z,65556.66
2022-09-14T01:05:46.260Z,65556.66
2022-09-14T01:08:42.083Z,65556.66
2022-09-14T01:11:51.511Z,65556.66
2022-09-14T01:14:35.265Z,65556.66
2022-09-14T01:17:13.629Z,65556.66
2022-09-14T01:20:27.073Z,65556.66
2022-09-14T01:23:10.140Z,65556.66
2022-09-14T01:26:34.382Z,65556.66
2022-09-14T01:29:13.464Z,65556.66
2022-09-14T01:31:52.201Z,65556.66
2022-09-14T01:34:32.793Z,65556.66
2022-09-14T01:37:13.063Z,65556.66
2022-09-14T01:39:47.296Z,65556.66
2022-09-14T01:42:43.528Z,65556.66
2022-09-14T01:45:19.285Z,65556.66
2022-09-14T01:47:55.412Z,65556.66
2022-09-14T01:50:28.400Z,65556.66
2022-09-14T01:53:04.181Z,65556.66
2022-09-14T01:55:41.211Z,65556.66
2022-09-14T01:58:15.797Z,65556.66
2022-09-14T02:00:48.762Z,65556.66
2022-09-14T02:03:23.326Z,65556.66
2022-09-14T02:06:00.700Z,65556.66
2022-09-14T02:08:33.267Z,65556.66
2022-09-14T02:11:02.935Z,65556.66
2022-09-14T02:13:31.987Z,65556.66
2022-09-14T02:16:02.328Z,65556.66
2022-09-14T02:18:31.191Z,65556.66
2022-09-14T02:21:06.117Z,65556.66
2022-09-14T02:23:37.461Z,65556.66
2022-09-14T02:26:06.767Z,65556.66
2022-09-14T02:28:35.490Z,65556.66
2022-09-14T02:31:21.588Z,65556.66
2022-09-14T02:34:03.264Z,65556.66
2022-09-14T02:36:48.250Z,65556.66
2022-09-14T02:39:28.135Z,65556.66
2022-09-14T02:42:09.767Z,65556.66
2022-09-14T02:44:58.841Z,65556.66
2022-09-14T02:47:44.805Z,65556.66
2022-09-14T02:50:27.950Z,65556.66
2022-09-14T02:53:10.737Z,65556.66
2022-09-14T02:55:46.323Z,65556.66
2022-09-14T02:58:16.327Z,65556.66
2022-09-14T03:01:12.847Z,65556.66
2022-09-14T03:03:43.069Z,65556.66
2022-09-14T03:06:11.823Z,65556.66
2022-09-14T03:08:41.991Z,65556.66
2022-09-14T03:11:10.861Z,65556.66
2022-09-14T03:13:40.180Z,65556.66
2022-09-14T03:16:10.422Z,65556.66
2022-09-14T03:18:40.279Z,65556.66
2022-09-14T03:21:13.652Z,65556.66
2022-09-14T03:23:45.038Z,65556.66
2022-09-14T03:26:16.624Z,65556.66
2022-09-14T03:28:45.724Z,65556.66
2022-09-14T03:31:14.702Z,65556.66
2022-09-14T03:33:43.819Z,65556.66
2022-09-14T03:36:40.195Z,65556.66
2022-09-14T03:39:09.416Z,65556.66
2022-09-14T03:41:38.196Z,65556.66
2022-09-14T03:44:07.059Z,65556.66
2022-09-14T03:46:36.068Z,65556.66
2022-09-14T03:49:05.056Z,65556.66
2022-09-14T03:51:36.003Z,65556.66
2022-09-14T03:54:06.619Z,65556.66
2022-09-14T03:56:35.952Z,65556.66
2022-09-14T03:59:05.277Z,65556.66
2022-09-14T04:01:35.019Z,65556.66
2022-09-14T04:04:04.317Z,65556.66
2022-09-14T04:07:07.864Z,65556.66
2022-09-14T04:09:38.985Z,65556.66
2022-09-14T04:12:08.794Z,65556.66
2022-09-14T04:14:37.956Z,65556.66
2022-09-14T04:17:07.158Z,65556.66
2022-09-14T04:19:37.777Z,65556.66
2022-09-14T04:22:06.690Z,65556.66
2022-09-14T04:24:36.493Z,65556.66
2022-09-14T04:27:06.737Z,65556.66
2022-09-14T04:29:36.026Z,65556.66
2022-09-14T04:32:05.471Z,65556.66
2022-09-14T04:34:34.150Z,65556.66
2022-09-14T04:37:02.960Z,65556.66
2022-09-14T04:39:31.650Z,65556.66
2022-09-14T04:42:00.136Z,65556.66
2022-09-14T04:44:29.957Z,65556.66
2022-09-14T04:46:58.539Z,65556.66
2022-09-14T04:49:27.130Z,65556.66
2022-09-14T04:51:55.592Z,65556.66
2022-09-14T04:54:24.069Z,65556.66
2022-09-14T04:56:52.591Z,65556.66
2022-09-14T04:59:21.121Z,65556.66
2022-09-14T05:01:52.219Z,65556.66
2022-09-14T05:04:20.717Z,65556.66
2022-09-14T05:06:50.210Z,65556.66
2022-09-14T05:09:20.105Z,65556.66
2022-09-14T05:11:49.697Z,65556.66
2022-09-14T05:14:18.230Z,65556.66
2022-09-14T05:16:48.027Z,65556.66
2022-09-14T05:19:19.323Z,65556.66
2022-09-14T05:21:48.572Z,65556.66
2022-09-14T05:24:19.714Z,65556.66
2022-09-14T05:26:48.796Z,65556.66
2022-09-14T05:29:20.890Z,65556.66
2022-09-14T05:31:49.517Z,65556.66
2022-09-14T05:34:19.555Z,65556.66
2022-09-14T05:36:48.066Z,65556.66
2022-09-14T05:39:21.035Z,65556.66
2022-09-14T05:41:51.970Z,65556.66
2022-09-14T05:44:20.473Z,65556.66
2022-09-14T05:46:48.990Z,65556.66
2022-09-14T05:49:18.982Z,65556.66
2022-09-14T05:51:47.735Z,65556.66
2022-09-14T05:54:16.202Z,65556.66
2022-09-14T05:56:44.647Z,65556.66
2022-09-14T05:59:13.288Z,65556.66
2022-09-14T06:01:41.855Z,65556.66
2022-09-14T06:04:12.829Z,65556.66
2022-09-14T06:06:52.103Z,65556.66
2022-09-14T06:09:33.247Z,65556.66
2022-09-14T06:12:01.928Z,65556.66
2022-09-14T06:14:30.674Z,65556.66
2022-09-14T06:17:00.791Z,65556.66
2022-09-14T06:19:29.270Z,65556.66
2022-09-14T06:21:59.241Z,65556.66
2022-09-14T06:24:27.694Z,65556.66
2022-09-14T06:26:56.156Z,65556.66
2022-09-14T06:29:24.683Z,65556.66
2022-09-14T06:31:55.172Z,65556.66
2022-09-14T06:34:23.595Z,65556.66
2022-09-14T06:36:52.037Z,65556.66
2022-09-14T06:39:21.845Z,65556.66
2022-09-14T06:41:51.982Z,65556.66
2022-09-14T06:44:20.976Z,65556.66
2022-09-14T06:46:49.455Z,65556.66
2022-09-14T06:49:20.810Z,65556.66
2022-09-14T07:29:02.185Z,94402.88
2022-09-14T07:31:33.968Z,94399.19
2022-09-14T07:34:05.266Z,94403.59
2022-09-14T07:36:37.060Z,94403.75
2022-09-14T07:39:07.985Z,94389.94
2022-09-14T07:41:37.463Z,94394.25
2022-09-14T07:44:09.518Z,94395.41
2022-09-14T07:46:41.221Z,94403.03
2022-09-14T07:49:12.040Z,94398.66
2022-09-14T07:51:41.357Z,94391.03
2022-09-14T07:54:14.190Z,94395.50
2022-09-14T07:56:43.519Z,94402.63
2022-09-14T08:02:07.403Z,94397.50
2022-09-14T08:04:36.859Z,94396.22
2022-09-14T08:07:05.780Z,94401.75
2022-09-14T08:09:34.536Z,94394.84
2022-09-14T08:12:06.320Z,94388.22
2022-09-14T08:14:37.039Z,94387.53
2022-09-14T08:17:05.981Z,94389.25
2022-09-14T08:19:35.361Z,94382.97
2022-09-14T08:22:04.550Z,94389.84
2022-09-14T08:24:33.576Z,94393.06
2022-09-14T08:27:02.510Z,94390.78
2022-09-14T08:29:31.249Z,94386.91
2022-09-14T08:32:01.641Z,94385.59
2022-09-14T08:34:33.035Z,94377.06
2022-09-14T08:37:02.160Z,94370.63
2022-09-14T08:39:31.025Z,94368.13
2022-09-14T08:42:02.023Z,94372.53
2022-09-14T08:44:37.044Z,94366.09
2022-09-14T08:47:13.864Z,94359.56
2022-09-14T08:49:49.892Z,94359.56
2022-09-14T08:52:26.848Z,94355.00
2022-09-14T08:54:57.939Z,94357.56
2022-09-14T08:57:35.805Z,94352.34
2022-09-14T09:00:12.495Z,94355.09
2022-09-14T09:03:31.472Z,94363.91
2022-09-14T09:06:16.218Z,94350.25
2022-09-14T09:08:58.802Z,94345.81
2022-09-14T09:11:37.624Z,94346.75
2022-09-14T09:14:20.310Z,94345.94
2022-09-14T09:16:55.276Z,94347.59
2022-09-14T09:19:32.093Z,94345.16
2022-09-14T09:22:05.073Z,94335.72
2022-09-14T09:24:41.633Z,94339.50
2022-09-14T09:27:13.388Z,94330.66
2022-09-14T09:29:43.168Z,94330.47
2022-09-14T09:32:18.456Z,94326.91
2022-09-14T09:34:49.174Z,94325.09
2022-09-14T09:37:20.926Z,94327.66
2022-09-14T09:39:50.557Z,94326.53
2022-09-14T09:42:25.046Z,94332.13
2022-09-14T09:45:04.026Z,94326.84
2022-09-14T09:47:37.100Z,94320.25
2022-09-14T09:50:22.021Z,94332.31
2022-09-14T09:52:53.946Z,94328.63
2022-09-14T09:55:26.637Z,94320.91
2022-09-14T09:57:56.216Z,94318.53
2022-09-14T10:00:28.196Z,94310.19
2022-09-14T10:02:58.297Z,94298.06
2022-09-14T10:05:32.452Z,94294.03
2022-09-14T10:08:06.918Z,94288.94
2022-09-14T10:10:45.074Z,94289.13
2022-09-14T10:13:29.413Z,94295.97
2022-09-14T10:16:23.626Z,94294.72
2022-09-14T10:18:54.751Z,94291.56
2022-09-14T10:21:27.131Z,94290.69
2022-09-14T10:24:08.612Z,94281.50
2022-09-14T10:26:38.624Z,94282.47
2022-09-14T10:29:41.479Z,94279.44
2022-09-14T10:32:23.930Z,94282.19
2022-09-14T10:34:52.631Z,94284.78
2022-09-14T10:37:47.462Z,94275.44
2022-09-14T10:40:21.170Z,94286.38
2022-09-14T10:43:10.563Z,94273.19
2022-09-14T10:45:44.333Z,94273.81
2022-09-14T10:48:58.447Z,94279.41
2022-09-14T10:51:44.757Z,94274.72
2022-09-14T10:54:45.654Z,94274.41
2022-09-14T10:57:26.603Z,94272.22
2022-09-14T11:00:02.068Z,94277.94
2022-09-14T11:03:15.562Z,94275.94
2022-09-14T11:05:58.264Z,94261.38
2022-09-14T11:08:34.069Z,94261.31
2022-09-14T11:11:31.523Z,94272.69
2022-09-14T11:14:21.212Z,94263.16
2022-09-14T11:56:26.908Z,94220.66
2022-09-14T11:58:59.383Z,94210.47
2022-09-14T12:01:38.140Z,94210.38
2022-09-14T12:04:16.991Z,94218.03
2022-09-14T12:06:58.465Z,94208.16
2022-09-14T12:09:55.502Z,94208.34
2022-09-14T12:12:36.535Z,94216.84
2022-09-14T12:15:21.939Z,94207.97
2022-09-14T12:17:51.859Z,94211.50
2022-09-14T12:20:39.140Z,94202.50
2022-09-14T12:23:32.129Z,94207.50
2022-09-14T12:26:16.204Z,94204.59
2022-09-14T12:28:50.630Z,94202.69
2022-09-14T12:32:06.164Z,94192.53
2022-09-14T12:34:35.409Z,94193.38
2022-09-14T12:37:37.307Z,94183.50
2022-09-14T12:40:39.260Z,94187.16
2022-09-14T12:43:53.029Z,94191.72
2022-09-14T12:46:42.275Z,94195.13
2022-09-14T12:49:36.869Z,94196.13
2022-09-14T12:52:29.064Z,94194.47
2022-09-14T12:55:19.380Z,94190.25
2022-09-14T12:57:58.051Z,94206.19
2022-09-14T13:00:29.050Z,94203.47
2022-09-14T13:03:35.079Z,94201.47
2022-09-14T13:06:05.383Z,94199.50
2022-09-14T13:08:34.649Z,94199.59
2022-09-14T13:11:03.343Z,94190.72
2022-09-14T13:13:34.971Z,94202.28
2022-09-14T13:16:08.617Z,94201.81
2022-09-14T13:18:40.034Z,94201.63
2022-09-14T13:21:22.024Z,94206.53
2022-09-14T13:23:51.007Z,94199.53
2022-09-14T13:26:34.398Z,94199.84
2022-09-14T13:29:04.254Z,94199.28
2022-09-14T13:31:36.942Z,94200.81
2022-09-14T13:34:08.858Z,94198.69
2022-09-14T13:36:44.105Z,94196.50
2022-09-14T13:39:28.835Z,94202.22
2022-09-14T13:41:59.316Z,94204.19
2022-09-14T13:44:55.056Z,94199.59
2022-09-14T13:47:27.034Z,94197.66
2022-09-14T13:49:58.443Z,94191.41
2022-09-14T13:55:30.278Z,94188.81
2022-09-14T13:58:21.626Z,94184.94
2022-09-14T14:00:55.475Z,94184.53
2022-09-14T14:03:35.383Z,94171.63
2022-09-14T14:06:23.922Z,94168.81
2022-09-14T14:09:01.426Z,94171.16
2022-09-14T14:11:36.395Z,94167.25
2022-09-14T14:14:22.547Z,94161.00
2022-09-14T14:17:25.589Z,94172.88
2022-09-14T14:19:56.496Z,94169.00
2022-09-14T14:22:33.243Z,94172.66
2022-09-14T14:25:18.845Z,94173.81
2022-09-14T14:27:49.549Z,94163.41
2022-09-14T14:30:22.136Z,94160.31
2022-09-14T14:32:52.678Z,94152.13
2022-09-14T14:35:24.449Z,94155.97
2022-09-14T14:37:54.672Z,94150.22
2022-09-14T14:40:24.098Z,94153.28
2022-09-14T14:42:54.217Z,94148.25
2022-09-14T14:45:26.922Z,94140.38
2022-09-14T14:47:57.335Z,94143.84
2022-09-14T14:50:30.193Z,94147.34
2022-09-14T14:53:00.745Z,94152.28
2022-09-14T14:55:31.868Z,94145.00
2022-09-14T14:58:04.604Z,94137.22
2022-09-14T15:00:36.790Z,94136.41
2022-09-14T15:03:06.275Z,94141.00
2022-09-14T15:05:35.095Z,94133.59
2022-09-14T15:08:05.236Z,94136.59
2022-09-14T15:10:34.427Z,94130.69
2022-09-14T15:13:02.937Z,94129.44
2022-09-14T15:15:31.508Z,94125.50
2022-09-14T15:18:00.302Z,94120.06
2022-09-14T15:20:29.276Z,94120.88
2022-09-14T15:22:58.419Z,94127.13
2022-09-14T15:25:28.469Z,94120.84
2022-09-14T15:27:57.085Z,94116.88
2022-09-14T15:30:25.977Z,94117.78
2022-09-14T15:32:54.643Z,94121.47
2022-09-14T15:35:23.366Z,94125.13
2022-09-14T15:37:51.985Z,94121.06
2022-09-14T15:40:20.552Z,94110.59
2022-09-14T15:42:50.721Z,94110.84
2022-09-14T15:45:19.727Z,94110.69
2022-09-14T15:47:48.422Z,94111.25
2022-09-14T15:50:17.545Z,94112.50
2022-09-14T15:52:46.060Z,94113.09
2022-09-14T15:55:14.914Z,94109.00
2022-09-14T15:57:43.593Z,94111.81
2022-09-14T16:00:15.829Z,94116.56
2022-09-14T16:02:44.467Z,94107.84
2022-09-14T16:05:14.691Z,94108.72
2022-09-14T16:07:43.524Z,94110.59
2022-09-14T16:10:12.196Z,94114.41
2022-09-14T16:12:40.931Z,94127.66
2022-09-14T16:15:11.099Z,94122.25
2022-09-14T16:17:43.416Z,94122.19
2022-09-14T16:20:12.236Z,94120.72
2022-09-14T16:22:41.143Z,94123.44
2022-09-14T16:25:09.844Z,94122.38
2022-09-14T16:27:38.562Z,94119.53
2022-09-14T16:30:09.369Z,94124.19
2022-09-14T16:32:37.968Z,94124.69
2022-09-14T16:35:32.965Z,94129.53
2022-09-14T16:38:01.547Z,94130.63
2022-09-14T16:40:31.722Z,94123.22
2022-09-14T16:43:00.403Z,94129.16
2022-09-14T16:45:29.159Z,94131.16
2022-09-14T16:47:58.019Z,94120.88
2022-09-14T16:50:26.779Z,94119.31
2022-09-14T16:52:57.065Z,94123.63
2022-09-14T16:55:25.723Z,94127.09
2022-09-14T16:57:54.212Z,94130.81
2022-09-14T17:00:22.840Z,94134.09
2022-09-14T17:02:53.447Z,94132.94
2022-09-14T17:05:22.072Z,94132.44
2022-09-14T17:07:58.051Z,94133.25
2022-09-14T17:10:26.731Z,94134.47
2022-09-14T17:12:55.417Z,94131.72
2022-09-14T17:15:26.996Z,94136.59
2022-09-14T17:17:57.535Z,94139.47
2022-09-14T17:20:26.093Z,94143.06
2022-09-14T17:22:54.906Z,94144.72
2022-09-14T17:25:25.331Z,94139.59
2022-09-14T17:27:54.941Z,94139.47
2022-09-14T17:30:23.755Z,94143.06
2022-09-14T17:32:52.366Z,94135.06
2022-09-14T17:35:47.930Z,94141.59
2022-09-14T17:38:17.266Z,94137.97
2022-09-14T17:40:47.993Z,94142.50
2022-09-14T17:43:19.243Z,94135.00
2022-09-14T17:45:55.200Z,94141.44
2022-09-14T17:48:25.632Z,94142.97
2022-09-14T17:50:54.405Z,94129.97
2022-09-14T17:53:23.908Z,94132.06
2022-09-14T17:55:54.195Z,94131.91
2022-09-14T17:58:22.941Z,94137.53
2022-09-14T18:00:51.535Z,94133.78
2022-09-14T18:03:20.311Z,94146.34
2022-09-14T18:05:56.635Z,94154.91
2022-09-14T18:08:25.393Z,94146.22
2022-09-14T18:10:55.747Z,94144.53
2022-09-14T18:13:33.908Z,94142.63
2022-09-14T18:16:03.123Z,94137.00
2022-09-14T18:18:32.103Z,94144.56
2022-09-14T18:21:01.463Z,94147.94
2022-09-14T18:23:34.680Z,94152.34
2022-09-14T18:26:06.766Z,94144.13
2022-09-14T18:28:37.364Z,94148.81
2022-09-14T18:31:08.511Z,94157.03
2022-09-14T18:33:37.873Z,94166.75
2022-09-14T18:36:08.346Z,94170.63
2022-09-14T18:38:37.327Z,94164.75
2022-09-14T18:41:09.758Z,94158.38
2022-09-14T18:43:39.288Z,94156.59
2022-09-14T18:46:09.179Z,94165.50
2022-09-14T18:48:38.825Z,94165.94
2022-09-14T18:51:09.006Z,94164.06
2022-09-14T18:53:38.147Z,94176.00
2022-09-14T18:56:12.185Z,94171.72
2022-09-14T18:58:43.969Z,94176.00
2022-09-14T19:01:14.071Z,94189.22
2022-09-14T19:03:44.514Z,94198.47
2022-09-14T19:06:17.504Z,94208.88
2022-09-14T19:08:47.010Z,94209.06
2022-09-14T19:11:20.404Z,94210.50
2022-09-14T19:13:51.143Z,94217.09
2022-09-14T19:16:21.278Z,94212.88
2022-09-14T19:18:51.167Z,94202.94
2022-09-14T19:21:23.851Z,94205.22
2022-09-14T19:24:00.779Z,94215.97
2022-09-14T19:26:33.806Z,94204.56
2022-09-14T19:29:03.933Z,94200.66
2022-09-14T19:31:33.662Z,94208.03
2022-09-14T19:34:04.817Z,94208.97
2022-09-14T19:36:35.317Z,94225.34
2022-09-14T19:39:05.883Z,94222.28
2022-09-14T19:41:37.317Z,94207.56
2022-09-14T19:44:08.340Z,94221.94
2022-09-14T19:46:39.734Z,94225.97
2022-09-14T19:49:11.273Z,94228.50
2022-09-14T19:51:39.963Z,94222.63
2022-09-14T19:54:08.906Z,94239.31
2022-09-14T19:56:40.140Z,94238.88
2022-09-14T19:59:09.900Z,94242.13
2022-09-14T20:01:41.144Z,94241.50
2022-09-14T20:04:11.847Z,94247.47
2022-09-14T20:06:44.677Z,94264.31
2022-09-14T20:09:16.599Z,94267.69
2022-09-14T20:11:49.405Z,94281.41
2022-09-14T20:14:21.579Z,94283.16
2022-09-14T20:16:53.843Z,94276.09
2022-09-14T20:19:47.829Z,94284.91
2022-09-14T20:22:17.041Z,94283.34
2022-09-14T20:24:45.934Z,94288.69
2022-09-14T20:27:15.880Z,94288.06
2022-09-14T20:29:44.583Z,94274.88
2022-09-14T20:32:16.278Z,94273.00
2022-09-14T20:34:47.390Z,94270.41
2022-09-14T20:37:16.199Z,94271.22
2022-09-14T20:39:45.096Z,94266.03
2022-09-14T20:42:15.506Z,94274.94
2022-09-14T20:44:44.548Z,94261.16
2022-09-14T20:47:13.768Z,94257.03
2022-09-14T20:49:42.331Z,94263.44
2022-09-14T20:52:10.993Z,94251.63
2022-09-14T20:54:39.734Z,94243.19
2022-09-14T20:57:08.581Z,94238.69
2022-09-14T20:59:38.978Z,94232.06
2022-09-14T21:02:08.551Z,94236.16
2022-09-14T21:04:37.618Z,94226.88
2022-09-14T21:07:21.654Z,94228.84
2022-09-14T21:09:50.633Z,94232.06
2022-09-14T21:12:25.335Z,94220.84
2022-09-14T21:14:55.396Z,94226.16
2022-09-14T21:17:24.334Z,94227.84
2022-09-14T21:19:53.055Z,94225.78
2022-09-14T21:22:21.641Z,94232.19
2022-09-14T21:24:50.319Z,94225.41
2022-09-14T21:27:19.190Z,94225.53
2022-09-14T21:29:48.317Z,94211.16
2022-09-14T21:32:18.535Z,94208.09
2022-09-14T21:34:47.183Z,94222.88
2022-09-14T21:37:15.891Z,94225.22
2022-09-14T21:39:44.997Z,94220.09
2022-09-14T21:42:13.597Z,94213.94
2022-09-14T21:44:42.355Z,94212.28
2022-09-14T21:47:11.104Z,94213.00
2022-09-14T21:49:41.433Z,94222.13
2022-09-14T21:52:15.216Z,94213.03
2022-09-14T21:54:43.691Z,94210.63
2022-09-14T21:57:12.358Z,94218.00
2022-09-14T21:59:41.368Z,94219.97
2022-09-14T22:02:10.124Z,94225.75
2022-09-14T22:04:40.112Z,94222.47
2022-09-14T22:07:09.199Z,94231.50
2022-09-14T22:09:38.025Z,94230.66
2022-09-14T22:12:07.143Z,94234.19
2022-09-14T22:15:00.227Z,94232.81
2022-09-14T22:17:29.254Z,94230.81
2022-09-14T22:20:00.769Z,94228.50
2022-09-14T22:23:03.357Z,94243.06
2022-09-14T22:25:33.151Z,94243.66
2022-09-14T22:28:01.798Z,94237.69
2022-09-14T22:30:30.676Z,94243.31
2022-09-14T22:32:59.590Z,94255.97
2022-09-14T22:35:29.882Z,94253.56
2022-09-14T22:37:58.680Z,94250.53
2022-09-14T22:40:27.458Z,94259.09
2022-09-14T22:42:56.010Z,94265.47
2022-09-14T22:45:24.534Z,94257.13
2022-09-14T22:47:53.243Z,94254.78
2022-09-14T22:50:21.760Z,94250.25
2022-09-14T22:52:52.316Z,94250.25
2022-09-14T22:55:21.595Z,94251.28
2022-09-14T22:57:51.253Z,94251.25
2022-09-14T23:00:20.366Z,94252.94
2022-09-14T23:02:49.228Z,94250.72
2022-09-14T23:05:19.777Z,94257.91
2022-09-14T23:07:48.506Z,94259.13
2022-09-14T23:10:18.828Z,94253.56
2022-09-14T23:12:47.563Z,94263.22
2022-09-14T23:15:16.598Z,94255.38
2022-09-14T23:17:49.982Z,94247.38
2022-09-14T23:20:46.508Z,94252.34
2022-09-14T23:23:15.236Z,94253.44
2022-09-14T23:25:45.772Z,94256.53
2022-09-14T23:28:14.436Z,94255.53
2022-09-14T23:30:43.351Z,94255.94
2022-09-14T23:33:12.154Z,94250.28
2022-09-14T23:35:40.852Z,94243.03
2022-09-14T23:38:09.812Z,94247.19
2022-09-14T23:40:38.569Z,94251.56
2022-09-14T23:43:08.526Z,94249.16
2022-09-14T23:45:37.522Z,94254.88
2022-09-14T23:48:06.444Z,94258.22
2022-09-14T23:50:35.259Z,94259.25
2022-09-14T23:53:03.801Z,94257.47
2022-09-14T23:55:32.703Z,94250.09
2022-09-14T23:58:01.511Z,94255.31
